Liberty, Kansas
Current Conditions -  °F | °C
As of 4:52 AM on Sunday 23 Nov 2014 (Local Time) from KCFV Reporting Station
Overcast Overcast  
Wind Chill: 57°   Ceiling: 1000
Heat Index: 57°   Visibility: 9mi
Dew Point: 54°   Wind: 9mph
Humidity: 89%   Direction: 170°S
Pressure: 29.56"   Gusts: NA
Location:  37.16°N, 95.59°W
Report Text: KCFV 231052Z AUTO 17008KT 9SM OVC010 14/12 A2956 RMK AO2 SLP007 T01390122
Loading
Personal Weather Stations






























Interactive Weather Map New forecast layout! Learn more

10-Day Weather Forecast

Advertisements
Track Severe Weather on mobile